createdAt,value
2023-04-07T00:00:10.950Z,1.90
2023-04-07T00:01:16.939Z,1.10
2023-04-07T00:02:19.859Z,1.30
2023-04-07T00:03:23.918Z,1.27
2023-04-07T00:04:26.953Z,1.67
2023-04-07T00:05:29.917Z,1.65
2023-04-07T00:06:33.057Z,1.70
2023-04-07T00:07:42.196Z,1.63
2023-04-07T00:08:51.469Z,1.58
2023-04-07T00:09:54.265Z,1.65
2023-04-07T00:10:57.733Z,1.65
2023-04-07T00:12:02.902Z,1.13
2023-04-07T00:13:05.877Z,1.65
2023-04-07T00:14:08.638Z,1.50
2023-04-07T00:15:11.736Z,1.50
2023-04-07T00:16:14.626Z,1.88
2023-04-07T00:17:17.450Z,1.38
2023-04-07T00:18:20.281Z,1.63
2023-04-07T00:19:23.105Z,1.70
2023-04-07T00:20:26.138Z,1.33
2023-04-07T00:21:28.927Z,1.52
2023-04-07T00:22:31.755Z,1.42
2023-04-07T00:23:34.488Z,1.60
2023-04-07T00:24:37.367Z,1.27
2023-04-07T00:25:40.189Z,1.30
2023-04-07T00:26:43.015Z,1.67
2023-04-07T00:27:45.851Z,1.38
2023-04-07T00:28:48.683Z,1.70
2023-04-07T00:29:51.721Z,1.45
2023-04-07T00:30:54.604Z,1.30
2023-04-07T00:31:57.423Z,1.23
2023-04-07T00:33:00.280Z,1.40
2023-04-07T00:34:03.064Z,1.13
2023-04-07T00:35:06.437Z,1.30
2023-04-07T00:36:09.377Z,1.08
2023-04-07T00:37:12.174Z,1.02
2023-04-07T00:38:15.015Z,1.10
2023-04-07T00:39:19.293Z,1.52
2023-04-07T00:40:23.396Z,1.45
2023-04-07T00:41:26.439Z,1.20
2023-04-07T00:42:29.490Z,1.70
2023-04-07T00:43:32.368Z,1.25
2023-04-07T00:44:35.127Z,1.17
2023-04-07T00:45:38.328Z,1.05
2023-04-07T00:46:42.393Z,1.00
2023-04-07T00:47:45.485Z,1.42
2023-04-07T00:48:48.524Z,1.20
2023-04-07T00:49:51.753Z,1.30
2023-04-07T00:50:54.901Z,1.10
2023-04-07T00:51:58.776Z,1.25
2023-04-07T00:53:02.915Z,1.15
2023-04-07T00:54:06.872Z,1.02
2023-04-07T00:55:10.123Z,1.10
2023-04-07T00:56:13.510Z,1.10
2023-04-07T00:57:16.725Z,0.98
2023-04-07T00:58:19.642Z,1.00
2023-04-07T00:59:22.552Z,1.20
2023-04-07T01:00:26.366Z,1.15
2023-04-07T01:01:41.369Z,1.05
2023-04-07T01:02:52.653Z,0.98
2023-04-07T01:04:04.853Z,1.23
2023-04-07T01:05:16.919Z,1.00
2023-04-07T01:06:27.044Z,1.02
2023-04-07T01:07:40.292Z,1.17
2023-04-07T01:08:57.575Z,1.02
2023-04-07T01:10:06.733Z,0.93
2023-04-07T01:11:28.640Z,1.00
2023-04-07T01:12:41.501Z,1.20
2023-04-07T01:13:50.101Z,1.00
2023-04-07T01:15:10.541Z,0.88
2023-04-07T01:16:30.019Z,1.60
2023-04-07T01:17:36.081Z,1.33
2023-04-07T01:18:40.738Z,1.05
2023-04-07T01:20:08.288Z,1.20
2023-04-07T01:21:17.547Z,0.98
2023-04-07T01:22:26.891Z,0.95
2023-04-07T01:24:01.911Z,1.27
2023-04-07T01:25:13.592Z,0.90
2023-04-07T01:26:36.986Z,1.25
2023-04-07T01:28:00.817Z,0.90
2023-04-07T01:29:31.616Z,1.00
2023-04-07T01:30:38.397Z,1.45
2023-04-07T01:31:42.484Z,1.65
2023-04-07T01:32:51.183Z,0.80
2023-04-07T01:33:56.723Z,1.10
2023-04-07T01:35:00.650Z,1.08
2023-04-07T01:36:04.651Z,0.90
2023-04-07T01:37:09.359Z,0.90
2023-04-07T01:38:13.990Z,1.08
2023-04-07T01:39:18.152Z,0.95
2023-04-07T01:40:23.490Z,0.80
2023-04-07T01:41:27.089Z,0.90
2023-04-07T01:42:31.965Z,1.23
2023-04-07T01:43:36.756Z,0.80
2023-04-07T01:44:41.103Z,0.93
2023-04-07T01:45:45.582Z,1.20
2023-04-07T01:46:51.324Z,0.85
2023-04-07T01:47:55.601Z,1.00
2023-04-07T01:48:59.278Z,0.95
2023-04-07T01:50:05.579Z,0.95
2023-04-07T01:51:11.774Z,0.88
2023-04-07T01:52:15.341Z,0.80
2023-04-07T01:53:18.430Z,0.80
2023-04-07T01:54:22.467Z,1.02
2023-04-07T01:55:25.974Z,0.85
2023-04-07T01:56:37.180Z,1.13
2023-04-07T01:57:42.274Z,0.80
2023-04-07T01:58:50.503Z,1.05
2023-04-07T01:59:55.938Z,1.05
2023-04-07T02:01:01.164Z,0.85
2023-04-07T02:02:04.335Z,1.35
2023-04-07T02:03:21.151Z,1.10
2023-04-07T02:04:41.238Z,1.02
2023-04-07T02:05:44.244Z,0.95
2023-04-07T02:06:56.869Z,1.00
2023-04-07T02:08:10.407Z,0.93
2023-04-07T02:09:17.694Z,2.22
2023-04-07T02:10:24.050Z,1.13
2023-04-07T02:11:32.788Z,1.10
2023-04-07T02:12:41.587Z,1.80
2023-04-07T02:13:53.964Z,0.90
2023-04-07T02:15:19.663Z,1.00
2023-04-07T02:16:23.092Z,0.90
2023-04-07T02:17:29.903Z,2.03
2023-04-07T02:18:33.252Z,1.08
2023-04-07T02:19:37.058Z,1.05
2023-04-07T02:20:41.512Z,1.85
2023-04-07T02:21:48.952Z,1.30
2023-04-07T02:22:53.969Z,1.02
2023-04-07T02:23:57.248Z,1.45
2023-04-07T02:25:00.495Z,1.00
2023-04-07T02:26:03.453Z,1.40
2023-04-07T02:27:06.437Z,1.40
2023-04-07T02:28:09.208Z,1.35
2023-04-07T02:29:12.021Z,1.10
2023-04-07T02:30:15.184Z,1.05
2023-04-07T02:31:18.065Z,1.40
2023-04-07T02:32:20.982Z,1.20
2023-04-07T02:33:23.818Z,1.20
2023-04-07T02:34:26.797Z,1.25
2023-04-07T02:35:29.729Z,1.25
2023-04-07T02:36:32.513Z,1.05
2023-04-07T02:37:35.692Z,1.20
2023-04-07T02:38:38.516Z,1.00
2023-04-07T02:39:41.510Z,0.93
2023-04-07T02:40:44.229Z,1.02
2023-04-07T02:41:46.978Z,1.00
2023-04-07T02:42:49.932Z,1.45
2023-04-07T02:43:53.049Z,0.93
2023-04-07T02:44:56.070Z,1.05
2023-04-07T02:45:58.910Z,1.17
2023-04-07T02:47:01.651Z,1.05
2023-04-07T02:48:04.597Z,2.35
2023-04-07T02:49:07.392Z,1.00
2023-04-07T02:50:10.680Z,1.27
2023-04-07T02:51:13.476Z,0.80
2023-04-07T02:52:16.488Z,0.93
2023-04-07T02:53:19.408Z,0.88
2023-04-07T02:54:22.518Z,1.33
2023-04-07T02:55:25.408Z,1.38
2023-04-07T02:56:28.307Z,1.50
2023-04-07T02:57:31.121Z,1.60
2023-04-07T02:58:37.642Z,1.00
2023-04-07T02:59:41.470Z,0.93
2023-04-07T03:00:49.079Z,1.05
2023-04-07T03:01:56.287Z,0.93
2023-04-07T03:02:59.635Z,1.08
2023-04-07T03:04:05.697Z,1.23
2023-04-07T03:05:09.428Z,1.23
2023-04-07T03:06:12.195Z,1.05
2023-04-07T03:07:26.234Z,1.00
2023-04-07T03:08:33.607Z,1.30
2023-04-07T03:09:36.901Z,1.33
2023-04-07T03:10:39.703Z,1.25
2023-04-07T03:11:44.079Z,1.00
2023-04-07T03:12:46.992Z,1.13
2023-04-07T03:13:49.935Z,1.13
2023-04-07T03:14:52.853Z,1.00
2023-04-07T03:15:58.380Z,1.45
2023-04-07T03:17:05.464Z,0.90
2023-04-07T03:18:08.457Z,1.02
2023-04-07T03:19:11.716Z,1.00
2023-04-07T03:21:22.520Z,1.05
2023-04-07T03:22:25.357Z,0.95
2023-04-07T03:23:29.684Z,0.70
2023-04-07T03:24:34.678Z,0.93
2023-04-07T03:25:38.691Z,1.00
2023-04-07T03:26:42.467Z,0.82
2023-04-07T03:27:59.987Z,1.42
2023-04-07T03:29:06.946Z,1.15
2023-04-07T03:30:11.504Z,0.93
2023-04-07T03:31:14.946Z,1.13
2023-04-07T03:32:17.719Z,1.10
2023-04-07T03:33:20.678Z,1.02
2023-04-07T03:34:23.547Z,1.05
2023-04-07T03:35:27.019Z,1.45
2023-04-07T03:36:29.841Z,0.95
2023-04-07T03:37:36.185Z,0.95
2023-04-07T03:38:41.023Z,1.08
2023-04-07T03:39:43.843Z,1.00
2023-04-07T03:41:09.179Z,0.75
2023-04-07T03:42:11.999Z,0.77
2023-04-07T03:43:16.083Z,1.10
2023-04-07T03:44:20.674Z,0.93
2023-04-07T03:45:23.422Z,2.03
2023-04-07T03:46:28.360Z,0.95
2023-04-07T03:47:31.241Z,1.00
2023-04-07T03:48:37.860Z,1.40
2023-04-07T03:49:44.999Z,1.15
2023-04-07T03:50:47.838Z,1.27
2023-04-07T03:51:53.402Z,1.30
2023-04-07T03:52:56.436Z,1.13
2023-04-07T03:54:02.264Z,1.33
2023-04-07T03:55:12.541Z,1.00
2023-04-07T03:56:17.393Z,1.10
2023-04-07T03:57:25.939Z,1.35
2023-04-07T03:58:28.706Z,1.05
2023-04-07T03:59:33.158Z,1.58
2023-04-07T04:00:40.934Z,1.42
2023-04-07T04:01:46.284Z,1.35
2023-04-07T04:02:51.837Z,0.90
2023-04-07T04:03:56.488Z,1.42
2023-04-07T04:05:02.189Z,1.20
2023-04-07T04:06:06.643Z,1.42
2023-04-07T04:07:09.396Z,1.63
2023-04-07T04:08:20.917Z,1.45
2023-04-07T04:09:23.722Z,1.35
2023-04-07T04:10:26.513Z,1.60
2023-04-07T04:11:31.983Z,1.13
2023-04-07T04:12:38.904Z,1.40
2023-04-07T04:13:45.814Z,1.77
2023-04-07T04:14:48.793Z,1.77
2023-04-07T04:15:53.407Z,1.33
2023-04-07T04:16:56.316Z,1.05
2023-04-07T04:18:12.648Z,1.27
2023-04-07T04:19:16.128Z,1.60
2023-04-07T04:20:19.143Z,1.20
2023-04-07T04:21:27.052Z,1.67
2023-04-07T04:22:29.837Z,1.65
2023-04-07T04:23:34.240Z,1.70
2023-04-07T04:24:37.975Z,1.60
2023-04-07T04:25:41.264Z,1.63
2023-04-07T04:26:46.804Z,1.40
2023-04-07T04:27:50.897Z,1.67
2023-04-07T04:28:57.478Z,1.65
2023-04-07T04:30:01.047Z,1.50
2023-04-07T04:31:12.173Z,1.55
2023-04-07T04:32:18.833Z,1.45
2023-04-07T04:33:21.910Z,1.40
2023-04-07T04:34:35.580Z,1.55
2023-04-07T04:35:38.304Z,1.80
2023-04-07T04:36:50.869Z,1.52
2023-04-07T04:37:55.588Z,1.98
2023-04-07T04:38:58.398Z,1.92
2023-04-07T04:40:01.264Z,2.10
2023-04-07T04:41:05.886Z,1.92
2023-04-07T04:42:09.843Z,2.00
2023-04-07T04:43:12.743Z,1.60
2023-04-07T04:44:16.859Z,1.55
2023-04-07T04:45:20.684Z,1.75
2023-04-07T04:46:25.234Z,1.98
2023-04-07T04:47:28.180Z,1.80
2023-04-07T04:48:30.978Z,1.67
2023-04-07T04:49:33.809Z,1.67
2023-04-07T04:50:39.312Z,1.52
2023-04-07T04:51:46.572Z,1.27
2023-04-07T04:52:52.555Z,1.52
2023-04-07T04:53:58.685Z,1.90
2023-04-07T04:55:03.044Z,1.85
2023-04-07T04:56:06.796Z,1.20
2023-04-07T04:57:16.397Z,1.67
2023-04-07T04:58:20.965Z,1.88
2023-04-07T04:59:27.786Z,1.98
2023-04-07T05:00:35.642Z,2.42
2023-04-07T05:01:41.468Z,1.63
2023-04-07T05:02:48.688Z,1.42
2023-04-07T05:03:52.370Z,1.48
2023-04-07T05:04:59.794Z,2.38
2023-04-07T05:06:05.115Z,2.10
2023-04-07T05:07:08.500Z,2.00
2023-04-07T05:08:12.050Z,1.45
2023-04-07T05:09:16.407Z,1.77
2023-04-07T05:10:21.717Z,1.90
2023-04-07T05:11:26.934Z,2.13
2023-04-07T05:12:31.922Z,2.03
2023-04-07T05:13:37.566Z,1.50
2023-04-07T05:14:40.917Z,1.98
2023-04-07T05:15:44.941Z,2.33
2023-04-07T05:16:49.239Z,1.80
2023-04-07T05:17:56.538Z,2.03
2023-04-07T05:19:02.848Z,1.85
2023-04-07T05:20:07.699Z,2.05
2023-04-07T05:21:16.624Z,1.85
2023-04-07T05:22:19.565Z,1.77
2023-04-07T05:23:24.437Z,1.40
2023-04-07T05:24:29.843Z,1.60
2023-04-07T05:25:36.985Z,1.52
2023-04-07T05:26:41.484Z,1.48
2023-04-07T05:27:44.856Z,1.23
2023-04-07T05:28:51.434Z,1.48
2023-04-07T05:29:57.551Z,1.23
2023-04-07T05:31:07.992Z,1.52
2023-04-07T05:32:11.780Z,2.17
2023-04-07T05:33:14.756Z,1.92
2023-04-07T05:34:21.232Z,1.48
2023-04-07T05:35:28.730Z,1.85
2023-04-07T05:36:34.281Z,2.45
2023-04-07T05:37:37.089Z,1.65
2023-04-07T05:38:41.874Z,1.92
2023-04-07T05:39:49.272Z,1.45
2023-04-07T05:40:52.141Z,1.63
2023-04-07T05:42:03.270Z,1.13
2023-04-07T05:43:06.314Z,1.77
2023-04-07T05:44:09.896Z,1.92
2023-04-07T05:45:16.350Z,1.70
2023-04-07T05:46:22.796Z,1.75
2023-04-07T05:47:32.642Z,1.60
2023-04-07T05:48:36.630Z,1.45
2023-04-07T05:49:46.085Z,1.90
2023-04-07T05:50:54.379Z,2.03
2023-04-07T05:51:57.214Z,1.65
2023-04-07T05:53:00.508Z,1.98
2023-04-07T05:54:04.101Z,1.42
2023-04-07T05:55:07.988Z,2.05
2023-04-07T05:56:11.247Z,1.88
2023-04-07T05:57:20.833Z,1.98
2023-04-07T05:58:24.805Z,1.60
2023-04-07T05:59:30.265Z,1.73
2023-04-07T06:00:33.292Z,1.52
2023-04-07T06:01:43.209Z,2.00
2023-04-07T06:02:47.307Z,1.48
2023-04-07T06:03:54.676Z,1.95
2023-04-07T06:05:00.499Z,1.55
2023-04-07T06:06:03.495Z,1.67
2023-04-07T06:07:06.341Z,2.22
2023-04-07T06:08:12.200Z,1.48
2023-04-07T06:09:15.162Z,1.63
2023-04-07T06:10:18.093Z,1.50
2023-04-07T06:11:22.259Z,1.92
2023-04-07T06:12:25.107Z,1.45
2023-04-07T06:13:27.959Z,1.88
2023-04-07T06:14:30.977Z,2.20
2023-04-07T06:15:34.047Z,1.60
2023-04-07T06:16:36.912Z,1.52
2023-04-07T06:17:39.706Z,1.60
2023-04-07T06:18:42.707Z,1.70
2023-04-07T06:19:45.761Z,1.55
2023-04-07T06:20:48.588Z,1.45
2023-04-07T06:21:54.642Z,1.42
2023-04-07T06:22:57.472Z,1.77
2023-04-07T06:24:00.580Z,1.20
2023-04-07T06:25:04.187Z,1.33
2023-04-07T06:26:12.321Z,1.35
2023-04-07T06:27:15.157Z,1.75
2023-04-07T06:28:18.818Z,1.45
2023-04-07T06:29:22.103Z,1.42
2023-04-07T06:30:25.300Z,1.63
2023-04-07T06:31:28.824Z,1.55
2023-04-07T06:32:31.891Z,1.30
2023-04-07T06:33:34.699Z,1.90
2023-04-07T06:34:37.744Z,1.02
2023-04-07T06:35:41.622Z,1.33
2023-04-07T06:36:45.610Z,1.55
2023-04-07T06:37:49.494Z,1.60
2023-04-07T06:38:52.493Z,1.65
2023-04-07T06:39:55.646Z,1.58
2023-04-07T06:40:58.413Z,1.55
2023-04-07T06:42:01.884Z,1.48
2023-04-07T06:43:04.613Z,1.48
2023-04-07T06:44:16.349Z,1.33
2023-04-07T06:45:19.088Z,1.75
2023-04-07T06:46:22.001Z,2.28
2023-04-07T06:47:24.825Z,1.60
2023-04-07T06:48:27.700Z,1.08
2023-04-07T06:49:30.423Z,1.13
2023-04-07T06:50:33.262Z,1.23
2023-04-07T06:51:36.038Z,1.23
2023-04-07T06:52:38.824Z,1.63
2023-04-07T06:53:42.139Z,1.33
2023-04-07T06:54:45.077Z,1.38
2023-04-07T06:55:47.831Z,1.23
2023-04-07T06:56:52.318Z,1.48
2023-04-07T06:57:56.597Z,1.40
2023-04-07T06:58:59.398Z,1.30
2023-04-07T07:00:02.136Z,1.45
2023-04-07T07:01:06.962Z,1.60
2023-04-07T07:02:09.960Z,1.45
2023-04-07T07:03:13.229Z,1.10
2023-04-07T07:04:16.323Z,1.45
2023-04-07T07:05:19.296Z,1.45
2023-04-07T07:06:22.032Z,1.08
2023-04-07T07:07:26.018Z,1.15
2023-04-07T07:08:31.062Z,1.55
2023-04-07T07:09:33.990Z,1.60
2023-04-07T07:10:36.732Z,1.10
2023-04-07T07:11:40.562Z,1.25
2023-04-07T07:12:43.359Z,1.70
2023-04-07T07:13:46.682Z,1.67
2023-04-07T07:14:49.570Z,1.08
2023-04-07T07:15:52.985Z,1.48
2023-04-07T07:16:55.796Z,1.33
2023-04-07T07:17:58.648Z,1.13
2023-04-07T07:19:01.463Z,1.42
2023-04-07T07:20:04.543Z,1.15
2023-04-07T07:21:07.306Z,0.98
2023-04-07T07:22:10.124Z,2.10
2023-04-07T07:23:13.046Z,1.02
2023-04-07T07:24:16.181Z,1.20
2023-04-07T07:25:18.946Z,1.30
2023-04-07T07:26:22.288Z,1.77
2023-04-07T07:27:25.122Z,1.23
2023-04-07T07:28:29.247Z,1.90
2023-04-07T07:29:32.241Z,1.08
2023-04-07T07:30:35.209Z,1.33
2023-04-07T07:31:38.178Z,1.00
2023-04-07T07:32:41.116Z,1.70
2023-04-07T07:33:46.236Z,1.38
2023-04-07T07:34:49.268Z,1.40
2023-04-07T07:35:52.221Z,1.10
2023-04-07T07:36:55.091Z,1.38
2023-04-07T07:37:57.887Z,1.27
2023-04-07T07:39:00.881Z,1.30
2023-04-07T07:40:03.823Z,1.05
2023-04-07T07:41:07.823Z,1.30
2023-04-07T07:42:10.584Z,1.05
2023-04-07T07:43:13.467Z,1.33
2023-04-07T07:44:16.377Z,1.25
2023-04-07T07:45:19.862Z,1.08
2023-04-07T07:46:24.631Z,0.88
2023-04-07T07:47:27.705Z,1.17
2023-04-07T07:48:30.593Z,1.40
2023-04-07T07:49:33.396Z,0.98
2023-04-07T07:50:36.703Z,0.85
2023-04-07T07:51:39.502Z,0.82
2023-04-07T07:52:43.517Z,1.27
2023-04-07T07:53:47.246Z,1.05
2023-04-07T07:54:51.705Z,1.13
2023-04-07T07:55:56.247Z,0.93
2023-04-07T07:56:58.955Z,1.02
2023-04-07T07:58:03.112Z,1.33
2023-04-07T07:59:08.812Z,0.95
2023-04-07T08:00:12.320Z,0.82
2023-04-07T08:01:17.904Z,0.75
2023-04-07T08:02:21.238Z,1.13
2023-04-07T08:03:24.935Z,1.17
2023-04-07T08:04:27.857Z,1.00
2023-04-07T08:05:30.954Z,1.02
2023-04-07T08:06:33.772Z,1.15
2023-04-07T08:07:36.887Z,0.98
2023-04-07T08:08:39.698Z,1.10
2023-04-07T08:09:42.414Z,0.75
2023-04-07T08:10:45.222Z,0.82
2023-04-07T08:11:51.468Z,0.80
2023-04-07T08:12:54.410Z,1.00
2023-04-07T08:13:57.184Z,0.75
2023-04-07T08:14:59.988Z,1.73
2023-04-07T08:16:02.874Z,0.93
2023-04-07T08:17:06.132Z,1.05
2023-04-07T08:18:08.951Z,0.95
2023-04-07T08:19:12.374Z,1.10
2023-04-07T08:20:15.329Z,1.05
2023-04-07T08:21:18.141Z,1.08
2023-04-07T08:22:21.352Z,0.93
2023-04-07T08:23:24.157Z,1.17
2023-04-07T08:24:26.902Z,1.02
2023-04-07T08:25:30.063Z,0.88
2023-04-07T08:26:33.399Z,1.15
2023-04-07T08:27:36.233Z,0.80
2023-04-07T08:28:39.718Z,0.63
2023-04-07T08:29:42.453Z,0.88
2023-04-07T08:30:45.192Z,1.58
2023-04-07T08:31:48.222Z,0.93
2023-04-07T08:32:51.224Z,0.93
2023-04-07T08:33:58.234Z,0.90
2023-04-07T08:35:01.067Z,0.93
2023-04-07T08:36:05.838Z,1.38
2023-04-07T08:37:09.766Z,0.82
2023-04-07T08:38:12.534Z,0.95
2023-04-07T08:39:15.274Z,1.30
2023-04-07T08:40:18.197Z,0.73
2023-04-07T08:41:29.469Z,1.20
2023-04-07T08:42:34.918Z,1.60
2023-04-07T08:43:39.769Z,1.10
2023-04-07T08:44:43.102Z,0.95
2023-04-07T08:45:47.542Z,1.63
2023-04-07T08:46:51.906Z,0.73
2023-04-07T08:47:59.519Z,0.93
2023-04-07T08:49:04.147Z,1.02
2023-04-07T08:50:11.933Z,1.02
2023-04-07T08:51:15.966Z,0.85
2023-04-07T08:52:22.685Z,0.75
2023-04-07T08:53:33.860Z,0.93
2023-04-07T08:54:37.074Z,0.55
2023-04-07T08:55:41.693Z,0.85
2023-04-07T08:56:44.880Z,0.93
2023-04-07T08:57:48.621Z,1.08
2023-04-07T08:58:52.646Z,0.75
2023-04-07T08:59:55.876Z,1.15
2023-04-07T09:00:59.018Z,0.90
2023-04-07T09:02:03.070Z,1.25
2023-04-07T09:03:08.168Z,1.50
2023-04-07T09:04:14.417Z,1.27
2023-04-07T09:05:17.295Z,1.77
2023-04-07T09:06:20.184Z,1.95
2023-04-07T09:07:23.058Z,2.45
2023-04-07T09:08:25.845Z,2.00
2023-04-07T09:09:29.532Z,2.45
2023-04-07T09:10:32.423Z,2.00
2023-04-07T09:11:40.430Z,2.72
2023-04-07T09:12:43.368Z,2.08
2023-04-07T09:13:46.375Z,3.08
2023-04-07T09:14:49.451Z,2.95
2023-04-07T09:15:52.450Z,2.38
2023-04-07T09:16:56.646Z,4.18
2023-04-07T09:17:59.775Z,3.15
2023-04-07T09:19:02.605Z,3.45
2023-04-07T09:20:05.934Z,3.28
2023-04-07T09:21:09.259Z,3.25
2023-04-07T09:22:14.507Z,3.33
2023-04-07T09:23:39.125Z,2.80
2023-04-07T09:24:42.715Z,3.33
2023-04-07T09:25:45.603Z,3.08
2023-04-07T09:26:48.354Z,3.42
2023-04-07T09:28:01.135Z,3.25
2023-04-07T09:29:04.329Z,3.10
2023-04-07T09:30:16.417Z,2.80
2023-04-07T09:31:21.386Z,2.83
2023-04-07T09:32:37.441Z,2.92
2023-04-07T09:33:40.514Z,3.97
2023-04-07T09:34:43.441Z,2.75
2023-04-07T09:35:56.301Z,2.90
2023-04-07T09:36:59.607Z,3.30
2023-04-07T09:38:09.749Z,2.38
2023-04-07T09:39:13.004Z,2.63
2023-04-07T09:40:27.948Z,3.00
2023-04-07T09:41:30.870Z,2.95
2023-04-07T09:42:34.787Z,4.22
2023-04-07T09:43:39.959Z,2.90
2023-04-07T09:44:42.872Z,3.42
2023-04-07T09:45:45.848Z,3.20
2023-04-07T09:46:59.293Z,2.95
2023-04-07T09:48:07.245Z,3.38
2023-04-07T09:49:10.022Z,3.08
2023-04-07T09:50:12.887Z,2.55
2023-04-07T09:51:18.634Z,2.95
2023-04-07T09:52:46.801Z,3.55
2023-04-07T09:53:51.915Z,3.92
2023-04-07T09:54:56.149Z,2.85
2023-04-07T09:55:58.997Z,3.10
2023-04-07T09:57:03.725Z,3.10
2023-04-07T09:58:07.657Z,3.78
2023-04-07T09:59:11.356Z,3.33
2023-04-07T10:00:14.902Z,4.45
2023-04-07T10:01:19.536Z,3.83
2023-04-07T10:02:23.359Z,3.67
2023-04-07T10:03:26.923Z,3.63
2023-04-07T10:04:30.152Z,3.53
2023-04-07T10:05:34.723Z,3.47
2023-04-07T10:06:37.657Z,3.72
2023-04-07T10:07:42.714Z,3.65
2023-04-07T10:08:46.492Z,3.05
2023-04-07T10:09:49.426Z,3.30
2023-04-07T10:10:52.781Z,3.50
2023-04-07T10:11:58.358Z,3.17
2023-04-07T10:13:03.843Z,3.30
2023-04-07T10:14:07.237Z,3.25
2023-04-07T10:15:15.913Z,3.53
2023-04-07T10:16:19.267Z,3.08
2023-04-07T10:17:22.864Z,3.08
2023-04-07T10:18:31.926Z,3.10
2023-04-07T10:19:35.887Z,3.47
2023-04-07T10:20:44.036Z,3.08
2023-04-07T10:21:51.261Z,2.72
2023-04-07T10:24:23.540Z,3.25
2023-04-07T10:25:27.019Z,2.72
2023-04-07T10:26:33.883Z,2.95
2023-04-07T10:27:50.228Z,2.30
2023-04-07T10:29:00.793Z,2.85
2023-04-07T10:30:07.494Z,2.80
2023-04-07T10:31:11.326Z,2.53
2023-04-07T10:32:14.306Z,2.42
2023-04-07T10:33:18.761Z,2.70
2023-04-07T10:34:50.708Z,2.75
2023-04-07T10:36:07.798Z,2.15
2023-04-07T10:37:14.463Z,2.65
2023-04-07T10:38:18.925Z,2.70
2023-04-07T10:39:22.211Z,3.00
2023-04-07T10:40:28.135Z,2.70
2023-04-07T10:41:37.177Z,2.38
2023-04-07T10:42:39.894Z,2.30
2023-04-07T10:43:45.182Z,2.38
2023-04-07T10:44:49.995Z,2.58
2023-04-07T10:45:59.590Z,2.90
2023-04-07T10:47:03.383Z,2.25
2023-04-07T10:48:09.893Z,2.65
2023-04-07T10:49:18.676Z,2.47
2023-04-07T10:50:23.911Z,2.67
2023-04-07T10:51:27.453Z,2.33
2023-04-07T10:52:30.245Z,2.58
2023-04-07T10:53:34.186Z,2.30
2023-04-07T10:54:37.276Z,2.53
2023-04-07T10:55:45.075Z,2.05
2023-04-07T10:57:03.118Z,2.35
2023-04-07T10:58:20.666Z,2.35
2023-04-07T10:59:28.056Z,2.50
2023-04-07T11:00:31.046Z,2.33
2023-04-07T11:01:34.969Z,2.03
2023-04-07T11:02:40.733Z,2.45
2023-04-07T11:03:55.021Z,2.22
2023-04-07T11:04:57.951Z,2.63
2023-04-07T11:06:11.537Z,2.20
2023-04-07T11:07:16.597Z,2.00
2023-04-07T11:08:36.412Z,2.05
2023-04-07T11:09:39.231Z,2.55
2023-04-07T11:10:48.311Z,2.42
2023-04-07T11:11:51.903Z,2.63
2023-04-07T11:13:02.911Z,2.33
2023-04-07T11:14:06.502Z,2.00
2023-04-07T11:15:22.615Z,2.10
2023-04-07T11:16:40.019Z,1.90
2023-04-07T11:17:42.929Z,2.05
2023-04-07T11:18:48.277Z,2.15
2023-04-07T11:19:52.853Z,2.17
2023-04-07T11:21:00.527Z,1.98
2023-04-07T11:23:27.415Z,1.80
2023-04-07T11:24:34.171Z,2.70
2023-04-07T11:25:37.631Z,1.88
2023-04-07T11:26:42.017Z,2.03
2023-04-07T11:27:45.106Z,1.85
2023-04-07T11:28:53.354Z,2.15
2023-04-07T11:29:57.453Z,2.33
2023-04-07T11:31:00.650Z,2.30
2023-04-07T11:32:03.552Z,1.67
2023-04-07T11:33:07.946Z,2.20
2023-04-07T11:34:12.248Z,1.92
2023-04-07T11:35:16.439Z,1.73
2023-04-07T11:36:27.633Z,2.10
2023-04-07T11:37:30.954Z,1.90
2023-04-07T11:38:38.609Z,2.00
2023-04-07T11:39:41.554Z,1.75
2023-04-07T11:40:44.440Z,2.58
2023-04-07T11:41:51.442Z,2.20
2023-04-07T11:42:54.314Z,2.03
2023-04-07T11:44:11.652Z,2.00
2023-04-07T11:45:19.774Z,1.30
2023-04-07T11:46:24.004Z,1.83
2023-04-07T11:47:40.632Z,1.85
2023-04-07T11:48:45.780Z,1.58
2023-04-07T11:49:49.439Z,1.77
2023-04-07T11:50:52.312Z,1.35
2023-04-07T11:52:03.327Z,1.42
2023-04-07T11:53:06.403Z,2.38
2023-04-07T11:54:10.297Z,1.48
2023-04-07T11:55:22.526Z,1.98
2023-04-07T11:56:25.457Z,1.55
2023-04-07T11:57:29.783Z,1.70
2023-04-07T11:58:32.970Z,1.63
2023-04-07T11:59:35.814Z,1.70
2023-04-07T12:00:54.784Z,1.67
2023-04-07T12:01:58.188Z,1.83
2023-04-07T12:03:12.237Z,1.42
2023-04-07T12:04:16.670Z,1.45
2023-04-07T12:05:19.657Z,1.77
2023-04-07T12:06:36.092Z,1.88
2023-04-07T12:07:40.821Z,1.33
2023-04-07T12:08:44.903Z,1.95
2023-04-07T12:09:47.848Z,1.83
2023-04-07T12:11:04.639Z,1.63
2023-04-07T12:12:08.409Z,1.83
2023-04-07T12:13:11.297Z,1.65
2023-04-07T12:14:16.828Z,1.70
2023-04-07T12:15:20.856Z,2.45
2023-04-07T12:16:24.136Z,1.65
2023-04-07T12:17:27.902Z,1.35
2023-04-07T12:18:31.442Z,1.63
2023-04-07T12:19:35.023Z,1.45
2023-04-07T12:20:37.974Z,1.67
2023-04-07T12:21:41.201Z,1.73
2023-04-07T12:22:44.128Z,1.42
2023-04-07T12:23:48.205Z,2.10
2023-04-07T12:24:51.278Z,1.58
2023-04-07T12:25:54.372Z,1.48
2023-04-07T12:26:58.410Z,1.45
2023-04-07T12:28:01.416Z,1.75
2023-04-07T12:29:05.585Z,1.90
2023-04-07T12:30:08.963Z,1.58
2023-04-07T12:31:11.875Z,1.25
2023-04-07T12:32:14.717Z,1.73
2023-04-07T12:33:17.543Z,1.70
2023-04-07T12:34:20.499Z,1.33
2023-04-07T12:35:23.365Z,1.40
2023-04-07T12:36:30.092Z,1.15
2023-04-07T12:37:33.279Z,1.58
2023-04-07T12:38:36.088Z,1.35
2023-04-07T12:39:38.944Z,1.67
2023-04-07T12:40:42.289Z,1.25
2023-04-07T12:41:46.226Z,1.45
2023-04-07T12:42:49.164Z,1.13
2023-04-07T12:43:52.686Z,1.63
2023-04-07T12:44:55.933Z,2.13
2023-04-07T12:45:59.166Z,1.48
2023-04-07T12:47:02.684Z,1.60
2023-04-07T12:48:05.935Z,1.40
2023-04-07T12:49:09.084Z,1.42
2023-04-07T12:50:11.893Z,1.88
2023-04-07T12:51:14.832Z,1.55
2023-04-07T12:52:17.840Z,1.60
2023-04-07T12:53:20.784Z,1.05
2023-04-07T12:54:24.268Z,1.48
2023-04-07T12:55:27.155Z,1.10
2023-04-07T12:56:30.087Z,1.58
2023-04-07T12:57:33.029Z,1.00
2023-04-07T12:58:35.903Z,1.27
2023-04-07T12:59:38.770Z,1.50
2023-04-07T13:00:41.983Z,1.55
2023-04-07T13:01:44.856Z,1.52
2023-04-07T13:02:48.525Z,1.17
2023-04-07T13:03:51.870Z,1.27
2023-04-07T13:04:55.026Z,1.10
2023-04-07T13:06:01.420Z,1.13
2023-04-07T13:07:04.224Z,1.33
2023-04-07T13:08:08.171Z,1.45
2023-04-07T13:09:10.922Z,1.55
2023-04-07T13:10:13.862Z,1.55
2023-04-07T13:11:16.735Z,1.17
2023-04-07T13:12:19.517Z,1.35
2023-04-07T13:13:23.051Z,1.27
2023-04-07T13:14:25.914Z,1.48
2023-04-07T13:15:29.068Z,1.25
2023-04-07T13:16:31.903Z,1.20
2023-04-07T13:17:36.944Z,1.45
2023-04-07T13:19:47.135Z,1.42
2023-04-07T13:20:58.572Z,1.67
2023-04-07T13:22:18.309Z,1.35
2023-04-07T13:23:26.273Z,1.58
2023-04-07T13:24:29.389Z,1.38
2023-04-07T13:25:32.300Z,1.45
2023-04-07T13:26:35.194Z,1.45
2023-04-07T13:27:38.079Z,1.58
2023-04-07T13:28:41.633Z,1.20
2023-04-07T13:29:44.532Z,1.25
2023-04-07T13:30:47.874Z,1.55
2023-04-07T13:31:50.734Z,1.35
2023-04-07T13:32:53.612Z,1.63
2023-04-07T13:33:56.504Z,1.45
2023-04-07T13:35:00.142Z,1.20
2023-04-07T13:36:03.004Z,1.15
2023-04-07T13:37:06.416Z,1.30
2023-04-07T13:38:09.560Z,1.10
2023-04-07T13:39:13.438Z,1.13
2023-04-07T13:40:16.308Z,1.13
2023-04-07T13:41:19.047Z,1.23
2023-04-07T13:42:22.421Z,1.08
2023-04-07T13:43:25.169Z,1.27
2023-04-07T13:44:29.067Z,1.73
2023-04-07T13:45:31.903Z,1.30
2023-04-07T13:46:35.178Z,1.38
2023-04-07T13:47:38.194Z,1.67
2023-04-07T13:48:41.133Z,1.58
2023-04-07T13:49:44.100Z,1.45
2023-04-07T13:50:47.026Z,1.67
2023-04-07T13:51:49.881Z,1.13
2023-04-07T13:52:52.833Z,1.08
2023-04-07T13:53:55.847Z,2.15
2023-04-07T13:54:58.695Z,1.23
2023-04-07T13:56:01.717Z,1.15
2023-04-07T13:57:04.839Z,1.17
2023-04-07T13:58:07.644Z,1.27
2023-04-07T13:59:11.252Z,1.27
2023-04-07T14:00:15.468Z,1.23
2023-04-07T14:01:18.570Z,1.13
2023-04-07T14:02:22.096Z,0.98
2023-04-07T14:03:25.186Z,1.50
2023-04-07T14:04:28.168Z,1.10
2023-04-07T14:05:31.259Z,1.25
2023-04-07T14:06:36.618Z,1.92
2023-04-07T14:07:39.494Z,1.25
2023-04-07T14:08:42.321Z,1.52
2023-04-07T14:09:46.466Z,1.13
2023-04-07T14:10:49.932Z,1.23
2023-04-07T14:11:52.767Z,1.13
2023-04-07T14:12:55.508Z,1.23
2023-04-07T14:13:58.362Z,1.33
2023-04-07T14:15:01.583Z,1.92
2023-04-07T14:16:06.606Z,1.50
2023-04-07T14:17:09.361Z,1.35
2023-04-07T14:18:12.187Z,1.52
2023-04-07T14:19:14.948Z,1.88
2023-04-07T14:20:17.857Z,1.05
2023-04-07T14:21:20.660Z,1.58
2023-04-07T14:22:23.554Z,1.05
2023-04-07T14:23:36.486Z,1.30
2023-04-07T14:24:40.643Z,1.00
2023-04-07T14:25:43.465Z,1.30
2023-04-07T14:26:46.674Z,1.35
2023-04-07T14:27:49.540Z,1.55
2023-04-07T14:28:52.463Z,1.50
2023-04-07T14:29:56.588Z,1.27
2023-04-07T14:30:59.478Z,1.58